Time;durP1;ratioP1;P1;durP2;ratioP2;P2;SDS_P1;SDS_P2;PMS_P1;PMS_P2;Temp;Humidity;BMP_temperature;BMP_pressure;BME280_temperature;BME280_humidity;BME280_pressure;Samples;Min_cycle;Max_cycle;Signal;HPM_P1;HPM_P2
2022/08/26 00:09:57;;;;;;;10.9;20.9;;;;;;;17.3;100;98450;;;;
2022/08/26 00:19:58;;;;;;;10.9;20.9;;;;;;;17.1;100;98440;;;;
2022/08/26 00:30:58;;;;;;;10.1;19.7;;;;;;;16.9;100;98440;;;;
2022/08/26 00:41:57;;;;;;;10.1;19.7;;;;;;;16.9;100;98440;;;;
2022/08/26 00:52:57;;;;;;;11.7;22.7;;;;;;;16.8;100;98440;;;;
2022/08/26 01:03:57;;;;;;;11.7;22.7;;;;;;;16.7;100;98450;;;;
2022/08/26 01:13:57;;;;;;;11.7;22.7;;;;;;;16.6;100;98450;;;;
2022/08/26 01:24:57;;;;;;;11.6;16.1;;;;;;;16.6;100;98450;;;;
2022/08/26 01:34:57;;;;;;;11.6;16.1;;;;;;;16.7;100;98440;;;;
2022/08/26 01:45:57;;;;;;;11.6;16.1;;;;;;;16.5;100;98450;;;;
2022/08/26 01:56:57;;;;;;;11.4;16.2;;;;;;;16.5;100;98450;;;;
2022/08/26 02:07:57;;;;;;;11.4;16.2;;;;;;;16.3;100;98440;;;;
2022/08/26 02:17:58;;;;;;;11.4;16.2;;;;;;;16.3;100;98450;;;;
2022/08/26 02:28:58;;;;;;;11.8;18.5;;;;;;;16.2;100;98440;;;;
2022/08/26 02:39:57;;;;;;;11.8;18.5;;;;;;;16.1;100;98430;;;;
2022/08/26 02:49:57;;;;;;;11.8;18.5;;;;;;;16;100;98430;;;;
2022/08/26 02:59:59;;;;;;;11.3;17.3;;;;;;;15.9;100;98430;;;;
2022/08/26 03:10:58;;;;;;;11.3;17.3;;;;;;;15.9;100;98430;;;;
2022/08/26 03:20:57;;;;;;;11.3;17.3;;;;;;;15.8;100;98430;;;;
2022/08/26 03:30:57;;;;;;;10.5;15.2;;;;;;;15.7;100;98420;;;;
2022/08/26 03:41:57;;;;;;;10.5;15.2;;;;;;;15.6;100;98420;;;;
2022/08/26 03:52:57;;;;;;;11.4;19.7;;;;;;;15.5;100;98430;;;;
2022/08/26 04:02:57;;;;;;;11.4;19.7;;;;;;;15.4;100;98440;;;;
2022/08/26 04:13:58;;;;;;;11.4;19.7;;;;;;;15.5;100;98440;;;;
2022/08/26 04:23:58;;;;;;;10.1;17.2;;;;;;;15.5;100;98430;;;;
2022/08/26 04:34:57;;;;;;;10.1;17.2;;;;;;;15.6;100;98430;;;;
2022/08/26 04:45:58;;;;;;;10.1;17.2;;;;;;;15.9;100;98420;;;;
2022/08/26 04:55:58;;;;;;;9.6;15.1;;;;;;;16.2;100;98420;;;;
2022/08/26 05:06:58;;;;;;;9.6;15.1;;;;;;;16.7;100;98420;;;;
2022/08/26 05:17:58;;;;;;;9.6;15.1;;;;;;;16.8;100;98430;;;;
2022/08/26 05:27:58;;;;;;;8.2;17;;;;;;;17;100;98420;;;;
2022/08/26 05:38:58;;;;;;;8.2;17;;;;;;;17.4;100;98430;;;;
2022/08/26 05:49:58;;;;;;;8.2;17;;;;;;;17.9;100;98430;;;;
2022/08/26 05:59:57;;;;;;;6.5;13.6;;;;;;;17.9;100;98430;;;;
2022/08/26 06:09:58;;;;;;;6.5;13.6;;;;;;;18.3;100;98430;;;;
2022/08/26 06:20:57;;;;;;;6.5;13.6;;;;;;;18.6;100;98430;;;;
2022/08/26 06:30:57;;;;;;;7.1;13.4;;;;;;;19;100;98440;;;;
2022/08/26 06:40:58;;;;;;;7.1;13.4;;;;;;;19.4;100;98430;;;;
2022/08/26 06:51:58;;;;;;;7.1;13.4;;;;;;;20;100;98440;;;;
2022/08/26 07:01:58;;;;;;;8;15.2;;;;;;;20;100;98450;;;;
2022/08/26 07:11:58;;;;;;;8;15.2;;;;;;;20.4;100;98430;;;;
2022/08/26 07:22:58;;;;;;;7;13;;;;;;;21;100;98430;;;;
2022/08/26 07:33:58;;;;;;;7;13;;;;;;;21.3;100;98430;;;;
2022/08/26 07:43:58;;;;;;;7;13;;;;;;;21.7;100;98420;;;;
2022/08/26 07:54:58;;;;;;;7.1;16.6;;;;;;;22.1;100;98420;;;;
2022/08/26 08:05:58;;;;;;;7.1;16.6;;;;;;;22.5;100;98420;;;;
2022/08/26 08:15:58;;;;;;;7.1;16.6;;;;;;;22.9;100;98420;;;;
2022/08/26 08:26:58;;;;;;;7;14.9;;;;;;;23.4;100;98420;;;;
2022/08/26 08:36:58;;;;;;;7;14.9;;;;;;;23.1;100;98410;;;;
2022/08/26 08:46:58;;;;;;;7;14.9;;;;;;;23.9;100;98410;;;;
2022/08/26 08:56:58;;;;;;;7;13.9;;;;;;;24.1;100;98400;;;;
2022/08/26 09:06:58;;;;;;;7;13.9;;;;;;;24.5;100;98390;;;;
2022/08/26 09:16:58;;;;;;;7;13.9;;;;;;;24.7;100;98390;;;;
2022/08/26 09:26:58;;;;;;;6.5;13.6;;;;;;;24.8;100;98380;;;;
2022/08/26 09:37:58;;;;;;;6.5;13.6;;;;;;;25.2;100;98380;;;;
2022/08/26 09:47:58;;;;;;;6.5;13.6;;;;;;;25.5;100;98370;;;;
2022/08/26 09:58:58;;;;;;;6.1;11.6;;;;;;;25.6;100;98360;;;;
2022/08/26 10:08:58;;;;;;;6.1;11.6;;;;;;;26.1;100;98360;;;;
2022/08/26 10:18:58;;;;;;;6.1;11.6;;;;;;;26.4;100;98350;;;;
2022/08/26 10:29:00;;;;;;;5.5;9.6;;;;;;;26.6;100;98350;;;;
2022/08/26 10:39:59;;;;;;;5.5;9.6;;;;;;;26.9;100;98340;;;;
2022/08/26 10:49:58;;;;;;;5.5;9.6;;;;;;;27.3;100;98330;;;;
2022/08/26 11:02:02;;;;;;;4.9;9.7;;;;;;;27.4;100;98330;;;;
2022/08/26 11:10:58;;;;;;;4.9;9.7;;;;;;;27.7;100;98330;;;;
2022/08/26 11:21:58;;;;;;;4.9;9.7;;;;;;;27.5;98.4;98320;;;;
2022/08/26 11:31:58;;;;;;;4.2;9.4;;;;;;;27.8;94.8;98320;;;;
2022/08/26 11:42:58;;;;;;;4.2;9.4;;;;;;;27.9;97.2;98300;;;;
2022/08/26 11:53:00;;;;;;;4.2;9.4;;;;;;;28.4;94.3;98290;;;;
2022/08/26 12:03:58;;;;;;;3.8;8.5;;;;;;;28.2;89.4;98270;;;;
2022/08/26 12:14:58;;;;;;;3.8;8.5;;;;;;;28.5;85.9;98260;;;;
2022/08/26 12:25:58;;;;;;;3;7;;;;;;;28.4;77;98250;;;;
2022/08/26 12:35:59;;;;;;;3;7;;;;;;;28.6;73.1;98250;;;;
2022/08/26 12:46:59;;;;;;;3;7;;;;;;;29;74.5;98240;;;;
2022/08/26 12:57:59;;;;;;;3.1;9.7;;;;;;;28.6;69.4;98230;;;;
2022/08/26 13:07:58;;;;;;;3.1;9.7;;;;;;;28.8;70.9;98220;;;;
2022/08/26 13:17:58;;;;;;;3.1;9.7;;;;;;;28.9;66.2;98220;;;;
2022/08/26 13:28:58;;;;;;;3.9;14.6;;;;;;;29.1;63.9;98210;;;;
2022/08/26 13:39:58;;;;;;;3.9;14.6;;;;;;;29.1;63.9;98210;;;;
2022/08/26 13:49:58;;;;;;;3.9;14.6;;;;;;;29.2;68.2;98210;;;;
2022/08/26 13:59:58;;;;;;;2.8;6;;;;;;;29.4;66.1;98200;;;;
2022/08/26 14:10:58;;;;;;;2.8;6;;;;;;;29.6;67;98190;;;;
2022/08/26 14:20:58;;;;;;;2.8;6;;;;;;;29.7;65.8;98190;;;;
2022/08/26 14:30:58;;;;;;;2.9;8.8;;;;;;;29.9;65.2;98190;;;;
2022/08/26 14:41:58;;;;;;;2.9;8.8;;;;;;;29.8;60.7;98190;;;;
2022/08/26 14:51:58;;;;;;;2.9;8.8;;;;;;;30.8;61;98190;;;;
2022/08/26 15:02:58;;;;;;;2.7;7.2;;;;;;;30.6;60.9;98190;;;;
2022/08/26 15:12:58;;;;;;;2.7;7.2;;;;;;;32.4;55;98200;;;;
2022/08/26 15:22:58;;;;;;;2.7;7.2;;;;;;;32.5;53.3;98200;;;;
2022/08/26 15:32:58;;;;;;;2.9;7.9;;;;;;;32.3;54.1;98190;;;;
2022/08/26 15:43:58;;;;;;;2.9;7.9;;;;;;;33.9;50.4;98190;;;;
2022/08/26 15:53:58;;;;;;;2.9;7.1;;;;;;;32.8;52.1;98180;;;;
2022/08/26 16:03:58;;;;;;;2.9;7.1;;;;;;;33.4;51.3;98180;;;;
2022/08/26 16:14:58;;;;;;;2.9;7.1;;;;;;;33.9;51.5;98180;;;;
2022/08/26 16:25:58;;;;;;;3.3;8.1;;;;;;;32.7;53.4;98160;;;;
2022/08/26 16:35:58;;;;;;;3.3;8.1;;;;;;;30.2;60.1;98140;;;;
2022/08/26 16:45:58;;;;;;;3.3;8.1;;;;;;;28.5;66.9;98140;;;;
2022/08/26 16:56:58;;;;;;;3.7;7;;;;;;;27.4;73.1;98130;;;;
2022/08/26 17:06:58;;;;;;;3.7;7;;;;;;;26.7;75.8;98130;;;;
2022/08/26 17:16:58;;;;;;;3.7;7;;;;;;;26.1;79.7;98120;;;;
2022/08/26 17:27:58;;;;;;;3.7;8.1;;;;;;;25.5;83.1;98120;;;;
2022/08/26 17:37:58;;;;;;;3.7;8.1;;;;;;;24.7;85.4;98110;;;;
2022/08/26 17:47:58;;;;;;;3.7;8.1;;;;;;;24.2;86.2;98110;;;;
2022/08/26 17:58:58;;;;;;;4.3;7.3;;;;;;;23.7;87.8;98110;;;;
2022/08/26 18:09:59;;;;;;;4.3;7.3;;;;;;;23.3;90;98110;;;;
2022/08/26 18:19:58;;;;;;;4.3;7.3;;;;;;;22.9;90.9;98120;;;;
2022/08/26 18:30:58;;;;;;;4.3;9.5;;;;;;;22.5;93.4;98120;;;;
2022/08/26 18:41:58;;;;;;;4.3;9.5;;;;;;;22;96.1;98130;;;;
2022/08/26 18:51:58;;;;;;;4.3;9.5;;;;;;;21.7;99;98130;;;;
2022/08/26 19:01:58;;;;;;;5.4;9.6;;;;;;;21.3;100;98130;;;;
2022/08/26 19:12:58;;;;;;;5.4;9.6;;;;;;;21;100;98120;;;;
2022/08/26 19:22:58;;;;;;;5.4;9.6;;;;;;;20.8;100;98110;;;;
2022/08/26 19:32:58;;;;;;;6.9;10.4;;;;;;;20.6;100;98110;;;;
2022/08/26 19:43:58;;;;;;;6.9;10.4;;;;;;;20.5;100;98120;;;;
2022/08/26 19:53:58;;;;;;;6.9;10.4;;;;;;;20.2;100;98110;;;;
2022/08/26 20:03:58;;;;;;;5.7;11.6;;;;;;;20.1;99.3;98120;;;;
2022/08/26 20:14:58;;;;;;;5.7;11.6;;;;;;;20;97.9;98130;;;;
2022/08/26 20:25:58;;;;;;;4.6;9.8;;;;;;;19.6;100;98140;;;;
2022/08/26 20:36:58;;;;;;;4.6;9.8;;;;;;;19.2;100;98150;;;;
2022/08/26 20:47:58;;;;;;;4.6;9.8;;;;;;;18.9;100;98150;;;;
2022/08/26 20:57:58;;;;;;;4.2;9.3;;;;;;;18.6;100;98160;;;;
2022/08/26 21:08:58;;;;;;;4.2;9.3;;;;;;;18.3;100;98160;;;;
2022/08/26 21:19:58;;;;;;;4.2;9.3;;;;;;;17.8;100;98160;;;;
2022/08/26 21:29:58;;;;;;;5.5;9.4;;;;;;;17.8;100;98160;;;;
2022/08/26 21:40:58;;;;;;;5.5;9.4;;;;;;;17.5;100;98160;;;;
2022/08/26 21:50:58;;;;;;;5.5;9.4;;;;;;;17.5;100;98150;;;;
2022/08/26 22:01:58;;;;;;;5.4;9.2;;;;;;;17.3;100;98150;;;;
2022/08/26 22:11:59;;;;;;;5.4;9.2;;;;;;;17.2;100;98150;;;;
2022/08/26 22:22:58;;;;;;;5.4;9.2;;;;;;;17;100;98140;;;;
2022/08/26 22:33:58;;;;;;;5.1;8.9;;;;;;;16.9;100;98150;;;;
2022/08/26 22:43:58;;;;;;;5.1;8.9;;;;;;;16.8;100;98150;;;;
2022/08/26 22:54:58;;;;;;;5.9;12.6;;;;;;;16.8;100;98150;;;;
2022/08/26 23:05:58;;;;;;;5.9;12.6;;;;;;;16.7;100;98140;;;;
2022/08/26 23:15:58;;;;;;;5.9;12.6;;;;;;;16.8;100;98140;;;;
2022/08/26 23:26:58;;;;;;;7.3;12.4;;;;;;;16.7;100;98120;;;;
2022/08/26 23:36:58;;;;;;;7.3;12.4;;;;;;;16.6;100;98110;;;;
2022/08/26 23:47:58;;;;;;;7.3;12.4;;;;;;;16.5;100;98100;;;;
2022/08/26 23:58:58;;;;;;;7.8;13.5;;;;;;;16.4;100;98110;;;;
